Time;durP1;ratioP1;P1;durP2;ratioP2;P2;SDS_P1;SDS_P2;PMS_P1;PMS_P2;Temp;Humidity;BMP_temperature;BMP_pressure;BME280_temperature;BME280_humidity;BME280_pressure;Samples;Min_cycle;Max_cycle;Signal;HPM_P1;HPM_P2
2023/07/08 00:00:39;;;;;;;;;;;17.20;99.90;;;;;;5053633;28;19925;-85
2023/07/08 00:03:05;;;;;;;;;;;17.20;99.90;;;;;;5037249;28;20013;-87
2023/07/08 00:05:31;;;;;;;;;;;17.10;99.90;;;;;;5056280;28;19940;-86
2023/07/08 00:07:57;;;;;;;;;;;17.10;99.90;;;;;;5053510;28;19929;-86
2023/07/08 00:10:27;;;;;;;;;;;17.10;99.90;;;;;;5053529;28;19932;-85
2023/07/08 00:12:54;;;;;;;;;;;17.00;99.90;;;;;;5052531;28;20336;-85
2023/07/08 00:15:25;;;;;;;;;;;17.00;99.90;;;;;;5051255;28;20024;-85
2023/07/08 00:17:50;;;;;;;;;;;17.00;99.90;;;;;;5041168;28;19924;-86
2023/07/08 00:20:19;;;;;;;;;;;17.00;99.90;;;;;;5024125;28;19925;-85
2023/07/08 00:22:49;;;;;;;;;;;17.00;99.90;;;;;;5036517;28;20045;-86
2023/07/08 00:25:16;;;;;;;;;;;17.00;99.90;;;;;;5040854;28;19935;-85
2023/07/08 00:27:41;;;;;;;;;;;16.90;99.90;;;;;;5054424;28;19925;-85
2023/07/08 00:30:17;;;;;;;;;;;16.90;99.90;;;;;;5050761;28;19924;-87
2023/07/08 00:32:42;;;;;;;;;;;16.90;99.90;;;;;;5038407;28;19932;-85
2023/07/08 00:35:08;;;;;;;;;;;16.80;99.90;;;;;;5050726;28;19925;-86
2023/07/08 00:37:33;;;;;;;;;;;16.80;99.90;;;;;;5055778;28;19944;-86
2023/07/08 00:39:59;;;;;;;;;;;16.80;99.90;;;;;;5044311;28;19929;-86
2023/07/08 00:42:25;;;;;;;;;;;16.80;99.90;;;;;;5056622;28;19932;-86
2023/07/08 00:44:51;;;;;;;;;;;16.80;99.90;;;;;;5040309;28;19977;-87
2023/07/08 00:47:17;;;;;;;;;;;16.70;99.90;;;;;;5052765;28;20349;-85
2023/07/08 00:49:55;;;;;;;;;;;16.70;99.90;;;;;;5056276;28;19985;-86
2023/07/08 00:52:26;;;;;;;;;;;16.70;99.90;;;;;;5050579;28;20019;-85
2023/07/08 00:54:52;;;;;;;;;;;16.60;99.90;;;;;;5054955;28;19932;-88
2023/07/08 00:57:18;;;;;;;;;;;16.60;99.90;;;;;;5050786;28;19932;-85
2023/07/08 00:59:47;;;;;;;;;;;16.60;99.90;;;;;;5039320;28;20043;-86
2023/07/08 01:02:14;;;;;;;;;;;16.60;99.90;;;;;;5054417;28;20299;-86
2023/07/08 01:04:46;;;;;;;;;;;16.60;99.90;;;;;;5050970;28;20757;-86
2023/07/08 01:07:11;;;;;;;;;;;16.50;99.90;;;;;;5047609;28;20359;-85
2023/07/08 01:09:42;;;;;;;;;;;16.50;99.90;;;;;;5050022;28;19931;-86
2023/07/08 01:12:10;;;;;;;;;;;16.50;99.90;;;;;;5050638;28;19978;-86
2023/07/08 01:14:38;;;;;;;;;;;16.50;99.90;;;;;;5050101;28;19924;-86
2023/07/08 01:17:04;;;;;;;;;;;16.50;99.90;;;;;;5049028;28;19928;-85
2023/07/08 01:19:32;;;;;;;;;;;16.40;99.90;;;;;;5046008;28;19932;-86
2023/07/08 01:21:59;;;;;;;;;;;16.40;99.90;;;;;;5053620;28;20339;-85
2023/07/08 01:24:25;;;;;;;;;;;16.30;99.90;;;;;;5052326;28;19928;-85
2023/07/08 01:26:51;;;;;;;;;;;16.30;99.90;;;;;;5041646;28;19931;-86
2023/07/08 01:29:16;;;;;;;;;;;16.30;99.90;;;;;;5049536;28;19929;-85
2023/07/08 01:31:48;;;;;;;;;;;16.30;99.90;;;;;;5051520;28;20420;-86
2023/07/08 01:34:17;;;;;;;;;;;16.20;99.90;;;;;;5047815;28;19933;-86
2023/07/08 01:36:46;;;;;;;;;;;16.20;99.90;;;;;;5040387;28;19933;-86
2023/07/08 01:39:13;;;;;;;;;;;16.20;99.90;;;;;;5048725;28;19940;-86
2023/07/08 01:41:39;;;;;;;;;;;16.10;99.90;;;;;;5039282;28;20354;-85
2023/07/08 01:44:05;;;;;;;;;;;16.10;99.90;;;;;;5055544;28;19925;-85
2023/07/08 01:46:31;;;;;;;;;;;16.10;99.90;;;;;;5051637;28;20275;-85
2023/07/08 01:48:59;;;;;;;;;;;16.10;99.90;;;;;;5056389;28;20290;-87
2023/07/08 01:51:25;;;;;;;;;;;16.10;99.90;;;;;;5041206;28;19935;-85
2023/07/08 01:53:51;;;;;;;;;;;16.00;99.90;;;;;;5039984;28;19970;-85
2023/07/08 01:56:17;;;;;;;;;;;16.00;99.90;;;;;;5055632;28;20009;-85
2023/07/08 01:58:42;;;;;;;;;;;16.00;99.90;;;;;;5040250;28;19924;-86
2023/07/08 02:01:08;;;;;;;;;;;15.90;99.90;;;;;;5048397;28;19940;-87
2023/07/08 02:03:34;;;;;;;;;;;15.90;99.90;;;;;;5050269;28;19956;-86
2023/07/08 02:06:00;;;;;;;;;;;15.80;99.90;;;;;;5044015;28;19951;-86
2023/07/08 02:08:25;;;;;;;;;;;15.80;99.90;;;;;;5054144;28;20003;-85
2023/07/08 02:10:52;;;;;;;;;;;15.80;99.90;;;;;;5020596;28;20264;-85
2023/07/08 02:13:19;;;;;;;;;;;15.70;99.90;;;;;;5057223;28;19932;-87
2023/07/08 02:15:44;;;;;;;;;;;15.70;99.90;;;;;;5057195;28;19978;-88
2023/07/08 02:18:10;;;;;;;;;;;15.60;99.90;;;;;;5054304;28;19928;-86
2023/07/08 02:20:35;;;;;;;;;;;15.60;99.90;;;;;;5051284;28;19940;-86
2023/07/08 02:23:01;;;;;;;;;;;15.60;99.90;;;;;;5040553;28;19929;-83
2023/07/08 02:25:27;;;;;;;;;;;15.60;99.90;;;;;;5025122;28;19928;-85
2023/07/08 02:27:54;;;;;;;;;;;15.60;99.90;;;;;;5058315;28;19964;-86
2023/07/08 02:30:20;;;;;;;;;;;15.50;99.90;;;;;;5042511;28;20407;-86
2023/07/08 02:32:56;;;;;;;;;;;15.50;99.90;;;;;;5041023;28;19932;-85
2023/07/08 02:35:26;;;;;;;;;;;15.50;99.90;;;;;;5026742;28;19925;-85
2023/07/08 02:37:52;;;;;;;;;;;15.50;99.90;;;;;;5041933;28;19928;-86
2023/07/08 02:40:18;;;;;;;;;;;15.40;99.90;;;;;;5042044;28;19932;-85
2023/07/08 02:42:44;;;;;;;;;;;15.40;99.90;;;;;;5035588;28;19928;-85
2023/07/08 02:45:10;;;;;;;;;;;15.40;99.90;;;;;;5037323;28;20031;-85
2023/07/08 02:47:36;;;;;;;;;;;15.30;99.90;;;;;;5042610;28;20016;-86
2023/07/08 02:50:02;;;;;;;;;;;15.30;99.90;;;;;;5040866;28;20369;-84
2023/07/08 02:52:27;;;;;;;;;;;15.30;99.90;;;;;;5042178;28;19925;-86
2023/07/08 02:54:53;;;;;;;;;;;15.30;99.90;;;;;;5055850;28;19925;-87
2023/07/08 02:57:18;;;;;;;;;;;15.30;99.90;;;;;;5053923;28;19931;-86
2023/07/08 02:59:44;;;;;;;;;;;15.30;99.90;;;;;;5039277;28;20015;-86
2023/07/08 03:02:09;;;;;;;;;;;15.30;99.90;;;;;;5041772;28;19931;-86
2023/07/08 03:04:38;;;;;;;;;;;15.30;99.90;;;;;;5026280;28;19963;-85
2023/07/08 03:07:04;;;;;;;;;;;15.20;99.90;;;;;;5053374;28;19976;-86
2023/07/08 03:09:32;;;;;;;;;;;15.20;99.90;;;;;;5034613;28;19963;-86
2023/07/08 03:11:58;;;;;;;;;;;15.20;99.90;;;;;;5053225;28;19932;-86
2023/07/08 03:14:24;;;;;;;;;;;15.20;99.90;;;;;;5038729;28;20399;-85
2023/07/08 03:16:49;;;;;;;;;;;15.20;99.90;;;;;;5068073;28;19932;-86
2023/07/08 03:19:16;;;;;;;;;;;15.20;99.90;;;;;;5052796;28;19974;-85
2023/07/08 03:21:42;;;;;;;;;;;15.20;99.90;;;;;;5054051;28;20461;-85
2023/07/08 03:24:12;;;;;;;;;;;15.20;99.90;;;;;;5034402;28;19924;-86
2023/07/08 03:26:37;;;;;;;;;;;15.20;99.90;;;;;;5035131;28;19925;-86
2023/07/08 03:29:04;;;;;;;;;;;15.20;99.90;;;;;;5035706;28;19936;-85
2023/07/08 03:31:30;;;;;;;;;;;15.10;99.90;;;;;;5035144;28;19925;-85
2023/07/08 03:33:55;;;;;;;;;;;15.20;99.90;;;;;;5051428;28;19934;-84
2023/07/08 03:36:24;;;;;;;;;;;15.10;99.90;;;;;;5042083;28;19924;-85
2023/07/08 03:38:50;;;;;;;;;;;15.10;99.90;;;;;;5052776;28;20972;-84
2023/07/08 03:41:16;;;;;;;;;;;15.20;99.90;;;;;;5053884;28;19991;-85
2023/07/08 03:43:41;;;;;;;;;;;15.10;99.90;;;;;;5039312;28;20411;-88
2023/07/08 03:46:09;;;;;;;;;;;15.10;99.90;;;;;;5052274;28;19924;-84
2023/07/08 03:48:35;;;;;;;;;;;15.20;99.90;;;;;;5056895;28;19928;-85
2023/07/08 03:51:00;;;;;;;;;;;15.20;99.90;;;;;;5038700;28;19929;-87
2023/07/08 03:53:26;;;;;;;;;;;15.10;99.90;;;;;;5040041;28;19982;-86
2023/07/08 03:55:51;;;;;;;;;;;15.10;99.90;;;;;;5053335;28;19928;-84
2023/07/08 03:58:17;;;;;;;;;;;15.10;99.90;;;;;;5041098;28;19993;-85
2023/07/08 04:00:43;;;;;;;;;;;15.20;99.90;;;;;;5044068;28;19928;-85
2023/07/08 04:03:10;;;;;;;;;;;15.20;99.90;;;;;;5042148;28;19964;-86
2023/07/08 04:05:36;;;;;;;;;;;15.20;99.90;;;;;;5055140;28;19932;-85
2023/07/08 04:08:02;;;;;;;;;;;15.20;99.90;;;;;;5040552;28;19985;-86
2023/07/08 04:10:27;;;;;;;;;;;15.20;99.90;;;;;;5051338;28;19924;-86
2023/07/08 04:12:53;;;;;;;;;;;15.20;99.90;;;;;;5053934;28;19975;-86
2023/07/08 04:15:18;;;;;;;;;;;15.30;99.90;;;;;;5054574;28;19978;-85
2023/07/08 04:17:48;;;;;;;;;;;15.30;99.90;;;;;;5051055;28;20359;-86
2023/07/08 04:20:16;;;;;;;;;;;15.30;99.90;;;;;;5053354;28;19936;-86
2023/07/08 04:22:41;;;;;;;;;;;15.30;99.90;;;;;;5054586;28;19928;-87
2023/07/08 04:25:07;;;;;;;;;;;15.40;99.90;;;;;;5050948;28;20604;-85
2023/07/08 04:27:33;;;;;;;;;;;15.40;99.90;;;;;;5038974;28;19929;-86
2023/07/08 04:29:58;;;;;;;;;;;15.40;99.90;;;;;;5040821;28;20008;-86
2023/07/08 04:32:27;;;;;;;;;;;15.40;99.90;;;;;;5055690;28;20575;-87
2023/07/08 04:34:52;;;;;;;;;;;15.50;99.90;;;;;;5052537;28;20359;-85
2023/07/08 04:37:19;;;;;;;;;;;15.50;99.90;;;;;;5036895;28;19972;-85
2023/07/08 04:39:44;;;;;;;;;;;15.60;99.90;;;;;;5039864;28;19977;-85
2023/07/08 04:42:13;;;;;;;;;;;15.60;99.90;;;;;;5054800;28;20339;-86
2023/07/08 04:44:38;;;;;;;;;;;15.70;99.90;;;;;;5020723;28;19989;-85
2023/07/08 04:47:04;;;;;;;;;;;15.70;99.90;;;;;;5053668;28;19933;-86
2023/07/08 04:49:33;;;;;;;;;;;15.80;99.90;;;;;;5053356;28;19933;-88
2023/07/08 04:52:02;;;;;;;;;;;15.90;99.90;;;;;;5038628;28;19929;-87
2023/07/08 04:54:28;;;;;;;;;;;16.00;99.90;;;;;;5038688;28;20371;-86
2023/07/08 04:56:53;;;;;;;;;;;16.10;99.90;;;;;;5035798;28;19931;-86
2023/07/08 04:59:22;;;;;;;;;;;16.10;99.90;;;;;;5049461;28;19929;-86
2023/07/08 05:01:48;;;;;;;;;;;16.20;99.90;;;;;;5036668;28;19928;-85
2023/07/08 05:04:14;;;;;;;;;;;16.30;99.90;;;;;;5048264;28;19935;-86
2023/07/08 05:06:40;;;;;;;;;;;16.50;99.90;;;;;;5051413;28;20422;-86
2023/07/08 05:09:06;;;;;;;;;;;16.70;99.90;;;;;;5043901;28;19974;-85
2023/07/08 05:11:32;;;;;;;;;;;16.80;99.90;;;;;;5032563;28;20330;-85
2023/07/08 05:13:57;;;;;;;;;;;17.10;99.90;;;;;;5050545;28;19972;-86
2023/07/08 05:16:23;;;;;;;;;;;17.50;99.90;;;;;;5066145;28;19982;-85
2023/07/08 05:18:49;;;;;;;;;;;17.90;99.90;;;;;;5037624;28;19929;-86
2023/07/08 05:21:14;;;;;;;;;;;18.40;99.90;;;;;;5034708;28;19928;-85
2023/07/08 05:23:40;;;;;;;;;;;18.90;99.90;;;;;;5067332;28;19925;-85
2023/07/08 05:26:09;;;;;;;;;;;19.30;99.90;;;;;;5055162;28;19925;-86
2023/07/08 05:28:35;;;;;;;;;;;19.70;99.90;;;;;;5056582;28;19972;-86
2023/07/08 05:31:00;;;;;;;;;;;20.10;99.90;;;;;;5046818;28;19964;-86
2023/07/08 05:33:27;;;;;;;;;;;20.30;99.90;;;;;;5059123;28;19925;-86
2023/07/08 05:35:53;;;;;;;;;;;20.70;99.90;;;;;;5053245;28;20407;-87
2023/07/08 05:38:19;;;;;;;;;;;20.90;99.90;;;;;;5054183;28;19936;-86
2023/07/08 05:40:51;;;;;;;;;;;21.10;99.90;;;;;;5053211;28;19932;-87
2023/07/08 05:43:17;;;;;;;;;;;21.30;99.90;;;;;;5040298;28;20098;-87
2023/07/08 05:45:43;;;;;;;;;;;21.50;99.90;;;;;;5053654;28;20077;-86
2023/07/08 05:48:09;;;;;;;;;;;21.70;99.90;;;;;;5038752;28;19931;-87
2023/07/08 05:50:35;;;;;;;;;;;21.90;99.90;;;;;;5052452;28;19924;-85
2023/07/08 05:53:00;;;;;;;;;;;22.20;99.90;;;;;;5056932;28;19925;-86
2023/07/08 05:55:26;;;;;;;;;;;22.40;99.90;;;;;;5043550;28;19932;-87
2023/07/08 05:57:52;;;;;;;;;;;22.60;99.90;;;;;;5042363;28;19924;-87
2023/07/08 06:00:17;;;;;;;;;;;22.80;99.90;;;;;;5051631;28;19936;-85
2023/07/08 06:02:43;;;;;;;;;;;23.10;99.90;;;;;;5018119;28;19928;-86
2023/07/08 06:05:08;;;;;;;;;;;23.20;99.90;;;;;;5056215;28;19924;-86
2023/07/08 06:07:34;;;;;;;;;;;23.40;99.90;;;;;;5056394;28;19940;-86
2023/07/08 06:10:00;;;;;;;;;;;23.60;99.90;;;;;;5052023;28;19944;-88
2023/07/08 06:12:25;;;;;;;;;;;23.80;99.90;;;;;;5039255;28;20272;-87
2023/07/08 06:14:51;;;;;;;;;;;24.00;99.90;;;;;;5026227;28;19936;-87
2023/07/08 06:17:17;;;;;;;;;;;24.10;99.90;;;;;;5059124;28;19928;-87
2023/07/08 06:19:42;;;;;;;;;;;24.40;99.90;;;;;;5056363;28;19936;-86
2023/07/08 06:22:08;;;;;;;;;;;24.60;99.90;;;;;;5055380;28;20347;-88
2023/07/08 06:24:34;;;;;;;;;;;24.70;99.90;;;;;;5040101;28;19933;-87
2023/07/08 06:26:59;;;;;;;;;;;24.80;99.90;;;;;;5053617;28;20415;-86
2023/07/08 06:29:25;;;;;;;;;;;25.00;99.90;;;;;;5053375;28;19931;-86
2023/07/08 06:31:51;;;;;;;;;;;25.30;99.90;;;;;;5049052;28;21237;-91
2023/07/08 06:34:22;;;;;;;;;;;25.40;99.90;;;;;;5021062;28;20364;-88
2023/07/08 06:36:47;;;;;;;;;;;25.50;99.90;;;;;;5046460;28;20443;-86
2023/07/08 06:39:13;;;;;;;;;;;25.60;99.10;;;;;;5055083;28;20062;-86
2023/07/08 06:41:39;;;;;;;;;;;25.70;98.50;;;;;;5052366;28;19925;-86
2023/07/08 06:44:04;;;;;;;;;;;25.80;97.80;;;;;;5044856;28;20375;-86
2023/07/08 06:46:30;;;;;;;;;;;25.80;98.30;;;;;;5043239;28;19925;-85
2023/07/08 06:48:55;;;;;;;;;;;25.90;99.90;;;;;;5016864;28;20015;-86
2023/07/08 06:51:21;;;;;;;;;;;26.10;99.30;;;;;;5052914;28;19925;-86
2023/07/08 06:53:47;;;;;;;;;;;26.30;98.10;;;;;;5062895;28;19932;-88
2023/07/08 06:56:12;;;;;;;;;;;26.30;94.20;;;;;;5061429;28;19928;-85
2023/07/08 06:58:38;;;;;;;;;;;26.60;96.90;;;;;;5059581;28;19925;-87
2023/07/08 07:01:03;;;;;;;;;;;26.80;93.30;;;;;;5061014;28;19932;-84
2023/07/08 07:03:29;;;;;;;;;;;26.80;94.40;;;;;;5062501;28;19987;-88
2023/07/08 07:05:55;;;;;;;;;;;26.80;94.30;;;;;;5041779;28;19925;-87
2023/07/08 07:08:20;;;;;;;;;;;27.00;94.10;;;;;;5050453;28;19928;-88
2023/07/08 07:10:46;;;;;;;;;;;27.10;93.40;;;;;;5055890;28;19928;-90
2023/07/08 07:13:11;;;;;;;;;;;27.20;93.30;;;;;;5025528;28;19936;-88
2023/07/08 07:15:37;;;;;;;;;;;27.40;89.60;;;;;;5052331;28;19925;-86
2023/07/08 07:18:03;;;;;;;;;;;27.50;91.60;;;;;;5053292;28;20394;-86
2023/07/08 07:20:29;;;;;;;;;;;27.60;91.70;;;;;;5054959;28;20374;-87
2023/07/08 07:22:54;;;;;;;;;;;27.50;90.60;;;;;;5056190;28;19929;-88
2023/07/08 07:25:20;;;;;;;;;;;27.50;90.70;;;;;;5054747;28;20283;-87
2023/07/08 07:27:46;;;;;;;;;;;27.70;91.30;;;;;;5040590;28;20090;-89
2023/07/08 07:30:14;;;;;;;;;;;28.00;91.70;;;;;;5054281;28;19933;-88
2023/07/08 07:32:43;;;;;;;;;;;28.20;89.70;;;;;;5059024;28;19936;-84
2023/07/08 07:35:14;;;;;;;;;;;28.30;87.50;;;;;;5042644;28;19925;-82
2023/07/08 07:37:41;;;;;;;;;;;28.40;89.30;;;;;;5037145;28;20442;-82
2023/07/08 07:40:12;;;;;;;;;;;28.50;90.70;;;;;;5046814;28;19925;-86
2023/07/08 07:42:38;;;;;;;;;;;28.60;88.80;;;;;;5059715;28;20019;-82
2023/07/08 07:45:04;;;;;;;;;;;28.70;88.60;;;;;;5044933;28;20211;-82
2023/07/08 07:47:30;;;;;;;;;;;28.70;84.60;;;;;;5049877;28;20101;-82
2023/07/08 07:49:56;;;;;;;;;;;28.90;88.20;;;;;;5038270;28;20010;-84
2023/07/08 07:52:24;;;;;;;;;;;28.90;87.60;;;;;;5049310;28;19925;-86
2023/07/08 07:54:50;;;;;;;;;;;28.90;84.80;;;;;;5054914;28;19933;-84
2023/07/08 07:57:16;;;;;;;;;;;29.00;85.50;;;;;;5035825;28;19932;-83
2023/07/08 07:59:42;;;;;;;;;;;28.90;81.10;;;;;;5056316;28;19924;-83
2023/07/08 08:02:08;;;;;;;;;;;29.00;83.30;;;;;;5051699;28;20350;-84
2023/07/08 08:04:33;;;;;;;;;;;29.00;81.90;;;;;;5045750;28;19925;-86
2023/07/08 08:06:59;;;;;;;;;;;29.10;80.50;;;;;;5053695;28;19969;-84
2023/07/08 08:09:25;;;;;;;;;;;29.10;82.80;;;;;;5050789;28;19933;-85
2023/07/08 08:11:51;;;;;;;;;;;29.10;82.20;;;;;;5015337;28;19924;-85
2023/07/08 08:14:17;;;;;;;;;;;29.00;80.80;;;;;;5048125;28;19991;-84
2023/07/08 08:16:43;;;;;;;;;;;28.90;82.60;;;;;;5052184;28;19965;-84
2023/07/08 08:19:09;;;;;;;;;;;28.90;82.20;;;;;;5048551;28;19928;-84
2023/07/08 08:21:35;;;;;;;;;;;29.00;81.30;;;;;;5050129;28;19924;-84
2023/07/08 08:24:00;;;;;;;;;;;29.30;82.70;;;;;;5052882;28;19932;-85
2023/07/08 08:26:26;;;;;;;;;;;29.40;81.20;;;;;;5057297;28;19955;-84
2023/07/08 08:28:51;;;;;;;;;;;29.60;83.30;;;;;;5051490;28;19925;-84
2023/07/08 08:31:17;;;;;;;;;;;29.60;81.70;;;;;;5051397;28;20294;-84
2023/07/08 08:33:43;;;;;;;;;;;29.40;80.40;;;;;;5054617;28;20015;-85
2023/07/08 08:36:09;;;;;;;;;;;29.30;81.70;;;;;;5050880;28;19924;-83
2023/07/08 08:38:34;;;;;;;;;;;29.30;80.10;;;;;;5062484;28;20477;-84
2023/07/08 08:41:13;;;;;;;;;;;29.40;81.30;;;;;;5033843;28;20031;-85
2023/07/08 08:43:41;;;;;;;;;;;29.60;79.70;;;;;;5058267;28;20714;-84
2023/07/08 08:46:12;;;;;;;;;;;29.90;81.50;;;;;;5033367;28;19925;-85
2023/07/08 08:48:41;;;;;;;;;;;30.10;82.30;;;;;;5050083;28;20430;-85
2023/07/08 08:51:12;;;;;;;;;;;30.10;81.80;;;;;;5054580;28;19925;-84
2023/07/08 08:53:38;;;;;;;;;;;30.00;76.50;;;;;;5051396;28;20008;-84
2023/07/08 08:56:09;;;;;;;;;;;29.90;81.10;;;;;;5050032;28;20064;-86
2023/07/08 08:58:43;;;;;;;;;;;29.80;80.60;;;;;;5049864;28;20344;-83
2023/07/08 09:01:11;;;;;;;;;;;29.80;79.20;;;;;;5052583;28;19924;-85
2023/07/08 09:03:39;;;;;;;;;;;29.80;81.10;;;;;;5049987;28;19936;-85
2023/07/08 09:06:13;;;;;;;;;;;29.90;77.70;;;;;;5049735;28;19929;-85
2023/07/08 09:08:39;;;;;;;;;;;30.00;78.50;;;;;;5033291;28;19935;-84
2023/07/08 09:11:04;;;;;;;;;;;30.10;79.80;;;;;;5049345;28;19983;-85
2023/07/08 09:13:35;;;;;;;;;;;30.20;80.20;;;;;;5049585;28;20390;-84
2023/07/08 09:16:21;;;;;;;;;;;30.30;75.00;;;;;;5054499;28;20394;-88
2023/07/08 09:18:56;;;;;;;;;;;30.30;76.40;;;;;;5006085;28;20015;-84
2023/07/08 09:21:26;;;;;;;;;;;30.40;78.70;;;;;;5048982;28;20517;-84
2023/07/08 09:23:53;;;;;;;;;;;30.40;75.10;;;;;;5050685;28;19960;-85
2023/07/08 09:26:24;;;;;;;;;;;30.60;77.50;;;;;;5033017;28;19925;-85
2023/07/08 09:28:49;;;;;;;;;;;30.60;77.70;;;;;;5050724;28;19929;-84
2023/07/08 09:31:23;;;;;;;;;;;30.80;78.90;;;;;;5050666;28;19931;-85
2023/07/08 09:33:50;;;;;;;;;;;30.80;75.80;;;;;;5048538;28;19928;-85
2023/07/08 09:36:18;;;;;;;;;;;30.70;75.80;;;;;;5035289;28;19924;-86
2023/07/08 09:38:46;;;;;;;;;;;30.70;78.10;;;;;;5054070;28;19924;-85
2023/07/08 09:41:12;;;;;;;;;;;30.70;76.10;;;;;;5043376;28;19928;-85
2023/07/08 09:43:38;;;;;;;;;;;30.80;75.80;;;;;;5054858;28;19958;-84
2023/07/08 09:46:04;;;;;;;;;;;30.90;76.20;;;;;;5045036;28;19944;-85
2023/07/08 09:48:36;;;;;;;;;;;31.00;75.70;;;;;;5063555;28;19932;-87
2023/07/08 09:51:02;;;;;;;;;;;30.90;75.90;;;;;;5056688;28;19939;-88
2023/07/08 09:53:28;;;;;;;;;;;30.90;76.10;;;;;;5035307;28;19929;-85
2023/07/08 09:55:56;;;;;;;;;;;30.90;75.90;;;;;;5055119;28;19935;-87
2023/07/08 09:58:25;;;;;;;;;;;31.00;74.40;;;;;;5057136;28;20319;-86
2023/07/08 10:00:55;;;;;;;;;;;31.20;76.70;;;;;;5055371;28;19933;-85
2023/07/08 10:03:22;;;;;;;;;;;31.00;71.80;;;;;;5053455;28;19933;-86
2023/07/08 10:05:48;;;;;;;;;;;30.80;74.20;;;;;;5050653;28;20351;-85
2023/07/08 10:08:18;;;;;;;;;;;30.80;74.40;;;;;;5048933;28;20354;-85
2023/07/08 10:10:45;;;;;;;;;;;30.90;74.10;;;;;;5052961;28;19994;-83
2023/07/08 10:13:11;;;;;;;;;;;31.00;75.30;;;;;;5023948;28;19986;-83
2023/07/08 10:15:38;;;;;;;;;;;31.00;75.30;;;;;;5053579;28;19928;-83
2023/07/08 10:18:04;;;;;;;;;;;31.00;75.20;;;;;;5035015;28;19936;-84
2023/07/08 10:20:36;;;;;;;;;;;31.00;72.20;;;;;;5023869;28;20283;-86
2023/07/08 10:23:14;;;;;;;;;;;31.10;74.00;;;;;;5053961;28;20016;-84
2023/07/08 10:25:40;;;;;;;;;;;31.10;74.40;;;;;;5034247;28;19931;-85
2023/07/08 10:28:24;;;;;;;;;;;31.20;72.30;;;;;;5053761;28;19928;-84
2023/07/08 10:31:04;;;;;;;;;;;31.20;76.30;;;;;;5062932;28;20043;-84
2023/07/08 10:33:46;;;;;;;;;;;31.40;74.40;;;;;;5050022;28;20339;-88
2023/07/08 10:36:33;;;;;;;;;;;31.60;75.00;;;;;;5055871;28;20011;-86
2023/07/08 10:39:17;;;;;;;;;;;31.70;74.10;;;;;;5037222;28;19925;-87
2023/07/08 10:42:12;;;;;;;;;;;31.80;72.30;;;;;;5054325;28;19956;-86
2023/07/08 10:45:04;;;;;;;;;;;31.90;73.00;;;;;;5036428;28;19936;-85
2023/07/08 10:47:38;;;;;;;;;;;32.10;73.30;;;;;;5064315;28;19925;-85
2023/07/08 10:50:05;;;;;;;;;;;32.20;72.70;;;;;;5060941;28;20193;-86
2023/07/08 10:52:44;;;;;;;;;;;32.10;70.90;;;;;;5048960;28;19925;-86
2023/07/08 10:55:09;;;;;;;;;;;32.10;71.50;;;;;;5064838;28;19925;-86
2023/07/08 10:57:50;;;;;;;;;;;32.10;71.90;;;;;;5039408;28;19931;-85
2023/07/08 11:00:22;;;;;;;;;;;32.20;72.10;;;;;;5034953;28;19925;-87
2023/07/08 11:03:05;;;;;;;;;;;32.40;71.50;;;;;;5042605;28;20448;-86
2023/07/08 11:05:37;;;;;;;;;;;32.40;71.90;;;;;;5040062;28;19932;-85
2023/07/08 11:08:08;;;;;;;;;;;32.50;69.70;;;;;;5056352;28;19925;-87
2023/07/08 11:10:46;;;;;;;;;;;32.50;69.10;;;;;;5040509;28;20219;-86
2023/07/08 11:13:13;;;;;;;;;;;32.40;68.50;;;;;;5046066;28;19972;-86
2023/07/08 11:15:46;;;;;;;;;;;32.60;70.80;;;;;;5035865;28;19925;-85
2023/07/08 11:18:17;;;;;;;;;;;32.60;69.90;;;;;;5046456;28;20375;-85
2023/07/08 11:20:56;;;;;;;;;;;32.70;69.80;;;;;;5034814;28;19978;-85
2023/07/08 11:23:40;;;;;;;;;;;32.80;69.60;;;;;;5061439;28;20381;-85
2023/07/08 11:26:24;;;;;;;;;;;32.90;67.40;;;;;;5050981;28;19937;-85
2023/07/08 11:28:51;;;;;;;;;;;32.80;67.40;;;;;;5051099;28;20390;-88
2023/07/08 11:31:17;;;;;;;;;;;32.80;69.70;;;;;;5034825;28;19956;-85
2023/07/08 11:33:44;;;;;;;;;;;33.00;68.70;;;;;;5052554;28;19951;-85
2023/07/08 11:36:10;;;;;;;;;;;33.10;68.70;;;;;;5043780;28;20015;-84
2023/07/08 11:38:38;;;;;;;;;;;33.10;67.20;;;;;;5038706;28;19924;-85
2023/07/08 11:41:11;;;;;;;;;;;33.00;65.00;;;;;;5064073;28;19931;-84
2023/07/08 11:43:39;;;;;;;;;;;33.00;67.60;;;;;;5051198;28;19932;-85
2023/07/08 11:46:06;;;;;;;;;;;33.00;65.80;;;;;;5047952;28;20636;-84
2023/07/08 11:48:39;;;;;;;;;;;33.10;67.30;;;;;;5057778;28;19948;-84
2023/07/08 11:51:05;;;;;;;;;;;33.10;66.90;;;;;;5048764;28;19948;-88
2023/07/08 11:53:30;;;;;;;;;;;33.20;65.80;;;;;;5053121;28;19925;-85
2023/07/08 11:55:58;;;;;;;;;;;33.20;66.70;;;;;;5035811;28;19947;-85
2023/07/08 11:58:25;;;;;;;;;;;33.20;64.90;;;;;;5033731;28;19925;-86
2023/07/08 12:00:59;;;;;;;;;;;33.30;66.30;;;;;;5052856;28;20070;-86
2023/07/08 12:03:35;;;;;;;;;;;33.40;66.40;;;;;;5050898;28;19929;-85
2023/07/08 12:06:06;;;;;;;;;;;33.50;66.80;;;;;;5051649;28;20393;-86
2023/07/08 12:08:38;;;;;;;;;;;33.50;62.80;;;;;;5051962;28;20019;-87
2023/07/08 12:11:03;;;;;;;;;;;33.50;64.30;;;;;;5050306;28;19925;-85
2023/07/08 12:13:30;;;;;;;;;;;33.60;64.90;;;;;;5051816;28;19928;-83
2023/07/08 12:15:55;;;;;;;;;;;33.60;62.20;;;;;;5051219;28;19933;-86
2023/07/08 12:18:23;;;;;;;;;;;33.60;64.10;;;;;;5051510;28;20345;-86
2023/07/08 12:20:51;;;;;;;;;;;33.70;63.00;;;;;;5049963;28;19939;-86
2023/07/08 12:23:18;;;;;;;;;;;33.70;62.90;;;;;;5054575;28;19931;-86
2023/07/08 12:25:44;;;;;;;;;;;33.70;61.10;;;;;;5051264;28;19929;-85
2023/07/08 12:28:12;;;;;;;;;;;33.70;62.00;;;;;;5052123;28;19936;-87
2023/07/08 12:30:38;;;;;;;;;;;33.70;61.70;;;;;;5046983;28;19931;-84
2023/07/08 12:33:08;;;;;;;;;;;33.70;59.40;;;;;;5060728;28;19936;-85
2023/07/08 12:35:34;;;;;;;;;;;33.70;61.90;;;;;;5051194;28;19928;-87
2023/07/08 12:38:09;;;;;;;;;;;33.70;61.60;;;;;;5047845;28;20383;-85
2023/07/08 12:40:34;;;;;;;;;;;33.70;62.90;;;;;;5036876;28;20022;-86
2023/07/08 12:43:00;;;;;;;;;;;33.70;59.40;;;;;;5066693;28;19967;-85
2023/07/08 12:45:27;;;;;;;;;;;33.70;60.10;;;;;;5053587;28;19925;-84
2023/07/08 12:47:52;;;;;;;;;;;33.70;60.40;;;;;;5057586;28;19939;-84
2023/07/08 12:50:18;;;;;;;;;;;33.80;60.90;;;;;;5064711;28;20047;-88
2023/07/08 12:52:45;;;;;;;;;;;33.80;61.20;;;;;;5031528;28;20011;-85
2023/07/08 12:55:11;;;;;;;;;;;33.90;61.30;;;;;;5038339;28;19936;-88
2023/07/08 12:57:37;;;;;;;;;;;34.00;60.60;;;;;;5038088;28;19929;-88
2023/07/08 13:00:04;;;;;;;;;;;34.00;59.90;;;;;;5057684;28;20398;-88
2023/07/08 13:02:31;;;;;;;;;;;34.00;59.60;;;;;;5050770;28;19936;-87
2023/07/08 13:04:59;;;;;;;;;;;34.00;61.10;;;;;;5048222;28;19936;-87
2023/07/08 13:07:32;;;;;;;;;;;34.00;59.60;;;;;;5016409;28;19925;-88
2023/07/08 13:09:59;;;;;;;;;;;33.90;55.80;;;;;;5051021;28;20390;-85
2023/07/08 13:12:26;;;;;;;;;;;34.00;60.00;;;;;;5065016;28;19935;-87
2023/07/08 13:14:52;;;;;;;;;;;33.90;58.80;;;;;;5054261;28;19928;-88
2023/07/08 13:17:18;;;;;;;;;;;34.00;60.30;;;;;;5040105;28;20353;-87
2023/07/08 13:19:44;;;;;;;;;;;34.10;59.40;;;;;;5050509;28;20341;-87
2023/07/08 13:22:18;;;;;;;;;;;34.20;57.70;;;;;;5051147;28;19929;-86
2023/07/08 13:24:44;;;;;;;;;;;34.20;56.00;;;;;;5048927;28;19924;-87
2023/07/08 13:27:14;;;;;;;;;;;34.30;58.30;;;;;;5061234;28;19925;-88
2023/07/08 13:29:40;;;;;;;;;;;34.40;58.10;;;;;;5054153;28;19933;-88
2023/07/08 13:32:09;;;;;;;;;;;34.30;55.80;;;;;;5053090;28;19961;-88
2023/07/08 13:34:35;;;;;;;;;;;34.40;55.20;;;;;;5033561;28;20447;-86
2023/07/08 13:37:01;;;;;;;;;;;34.50;56.90;;;;;;5061379;28;19928;-88
2023/07/08 13:39:34;;;;;;;;;;;34.50;56.90;;;;;;5062680;28;19931;-89
2023/07/08 13:42:00;;;;;;;;;;;34.50;56.90;;;;;;5050608;28;20046;-87
2023/07/08 13:44:26;;;;;;;;;;;34.40;55.30;;;;;;5055257;28;20023;-88
2023/07/08 13:46:55;;;;;;;;;;;34.30;55.20;;;;;;5026498;28;19991;-89
2023/07/08 13:49:27;;;;;;;;;;;34.10;55.00;;;;;;5047837;28;19929;-87
2023/07/08 13:52:04;;;;;;;;;;;34.00;55.10;;;;;;5061413;28;19928;-87
2023/07/08 13:54:34;;;;;;;;;;;34.10;56.70;;;;;;5053478;28;20431;-86
2023/07/08 13:57:00;;;;;;;;;;;34.30;57.70;;;;;;5037439;28;20390;-88
2023/07/08 13:59:26;;;;;;;;;;;34.50;55.20;;;;;;5042342;28;19946;-88
2023/07/08 14:01:53;;;;;;;;;;;34.60;52.40;;;;;;5046277;28;19925;-85
2023/07/08 14:04:20;;;;;;;;;;;34.60;56.60;;;;;;5053873;28;20023;-87
2023/07/08 14:06:46;;;;;;;;;;;34.70;56.10;;;;;;5064798;28;19929;-87
2023/07/08 14:09:19;;;;;;;;;;;34.60;56.90;;;;;;5050845;28;19987;-89
2023/07/08 14:11:45;;;;;;;;;;;34.60;55.20;;;;;;5068220;28;19933;-90
2023/07/08 14:14:10;;;;;;;;;;;34.50;57.20;;;;;;5060843;28;20001;-88
2023/07/08 14:16:41;;;;;;;;;;;34.60;55.40;;;;;;5061722;28;19935;-87
2023/07/08 14:19:10;;;;;;;;;;;34.70;57.40;;;;;;5053263;28;20362;-84